createdAt,value
2018-12-27T00:00:26.103Z,13.60
2018-12-27T00:02:56.104Z,16.00
2018-12-27T00:05:26.087Z,13.87
2018-12-27T00:07:56.163Z,17.47
2018-12-27T00:10:26.208Z,18.93
2018-12-27T00:12:56.291Z,10.60
2018-12-27T00:15:26.341Z,17.10
2018-12-27T00:17:56.431Z,11.53
2018-12-27T00:20:26.496Z,14.10
2018-12-27T00:22:56.544Z,21.77
2018-12-27T00:25:26.518Z,18.30
2018-12-27T00:27:56.603Z,12.20
2018-12-27T00:30:26.747Z,18.63
2018-12-27T00:33:03.162Z,24.77
2018-12-27T00:35:28.695Z,10.70
2018-12-27T00:37:58.821Z,16.20
2018-12-27T00:40:28.964Z,12.60
2018-12-27T00:43:00.018Z,12.33
2018-12-27T00:45:30.307Z,12.00
2018-12-27T00:48:00.458Z,15.87
2018-12-27T00:50:30.584Z,23.33
2018-12-27T00:53:00.862Z,17.70
2018-12-27T00:55:30.995Z,11.97
2018-12-27T00:58:01.183Z,13.10
2018-12-27T01:00:31.451Z,11.10
2018-12-27T01:03:01.606Z,13.87
2018-12-27T01:05:31.812Z,14.07
2018-12-27T01:08:01.966Z,19.10
2018-12-27T01:10:32.153Z,16.63
2018-12-27T01:13:02.330Z,15.37
2018-12-27T01:15:32.450Z,14.70
2018-12-27T01:18:02.607Z,11.57
2018-12-27T01:20:32.749Z,13.63
2018-12-27T01:23:02.997Z,17.00
2018-12-27T01:25:33.193Z,13.90
2018-12-27T01:28:03.323Z,15.57
2018-12-27T01:30:33.421Z,12.37
2018-12-27T01:33:03.587Z,12.07
2018-12-27T01:35:33.735Z,14.50
2018-12-27T01:38:03.905Z,14.13
2018-12-27T01:40:34.058Z,6.93
2018-12-27T01:43:04.222Z,9.30
2018-12-27T01:45:34.424Z,7.20
2018-12-27T01:48:04.570Z,16.13
2018-12-27T01:50:34.666Z,7.37
2018-12-27T01:53:04.827Z,18.67
2018-12-27T01:55:34.958Z,7.03
2018-12-27T01:58:05.133Z,5.93
2018-12-27T02:00:35.300Z,9.00
2018-12-27T02:03:05.397Z,13.03
2018-12-27T02:05:35.532Z,9.00
2018-12-27T02:08:05.650Z,8.67
2018-12-27T02:10:35.823Z,23.37
2018-12-27T02:13:06.035Z,10.77
2018-12-27T02:15:36.223Z,18.57
2018-12-27T02:18:06.387Z,13.70
2018-12-27T02:20:36.571Z,10.10
2018-12-27T02:23:06.689Z,11.20
2018-12-27T02:25:36.853Z,15.63
2018-12-27T02:28:06.953Z,10.03
2018-12-27T02:30:37.138Z,9.27
2018-12-27T02:33:07.231Z,17.40
2018-12-27T02:35:37.392Z,8.60
2018-12-27T02:38:07.540Z,6.63
2018-12-27T02:40:37.715Z,11.10
2018-12-27T02:43:07.800Z,8.40
2018-12-27T02:45:38.056Z,8.73
2018-12-27T02:48:08.220Z,10.10
2018-12-27T02:50:38.387Z,13.63
2018-12-27T02:53:08.558Z,7.90
2018-12-27T02:55:38.694Z,9.97
2018-12-27T02:58:08.908Z,9.40
2018-12-27T03:00:39.068Z,9.70
2018-12-27T03:03:09.257Z,8.13
2018-12-27T03:05:39.380Z,10.40
2018-12-27T03:08:09.578Z,12.93
2018-12-27T03:10:39.748Z,11.20
2018-12-27T03:13:09.844Z,13.00
2018-12-27T03:15:40.077Z,20.37
2018-12-27T03:18:10.280Z,11.57
2018-12-27T03:20:40.536Z,16.73
2018-12-27T03:23:10.723Z,14.70
2018-12-27T03:25:41.074Z,10.97
2018-12-27T03:28:11.244Z,13.20
2018-12-27T03:30:41.373Z,10.93
2018-12-27T03:33:11.604Z,10.70
2018-12-27T03:35:41.806Z,14.23
2018-12-27T03:38:12.011Z,11.53
2018-12-27T03:40:42.232Z,6.83
2018-12-27T03:43:12.367Z,6.33
2018-12-27T03:45:42.507Z,11.10
2018-12-27T03:48:12.659Z,8.60
2018-12-27T03:50:42.757Z,9.60
2018-12-27T03:53:12.887Z,12.03
2018-12-27T03:55:42.998Z,9.60
2018-12-27T03:58:13.175Z,9.98
2018-12-27T04:00:43.419Z,10.80
2018-12-27T04:03:13.559Z,22.70
2018-12-27T04:05:43.689Z,12.90
2018-12-27T04:08:13.914Z,9.10
2018-12-27T04:10:44.088Z,11.57
2018-12-27T04:13:14.791Z,13.30
2018-12-27T04:15:44.869Z,13.50
2018-12-27T04:18:14.927Z,8.70
2018-12-27T04:20:44.919Z,13.53
2018-12-27T04:23:15.191Z,8.50
2018-12-27T04:25:45.440Z,10.43
2018-12-27T04:28:15.415Z,11.80
2018-12-27T04:30:45.988Z,10.83
2018-12-27T04:33:18.420Z,12.10
2018-12-27T04:35:50.918Z,16.43
2018-12-27T04:38:20.912Z,10.30
2018-12-27T04:40:50.962Z,7.87
2018-12-27T04:43:22.067Z,13.80
2018-12-27T04:45:52.111Z,12.97
2018-12-27T04:48:22.119Z,9.07
2018-12-27T04:50:52.451Z,7.90
2018-12-27T04:53:22.511Z,9.47
2018-12-27T04:55:52.710Z,9.50
2018-12-27T04:58:22.768Z,7.83
2018-12-27T05:00:52.842Z,7.10
2018-12-27T05:03:22.817Z,12.40
2018-12-27T05:05:52.987Z,12.57
2018-12-27T05:08:23.040Z,10.87
2018-12-27T05:10:53.479Z,8.00
2018-12-27T05:13:23.485Z,6.40
2018-12-27T05:15:53.582Z,9.13
2018-12-27T05:18:23.705Z,7.77
2018-12-27T05:20:53.788Z,8.00
2018-12-27T05:23:23.868Z,7.90
2018-12-27T05:25:53.783Z,8.43
2018-12-27T05:28:24.000Z,11.33
2018-12-27T05:30:54.144Z,8.43
2018-12-27T05:33:24.319Z,8.33
2018-12-27T05:35:54.396Z,10.37
2018-12-27T05:38:24.423Z,6.70
2018-12-27T05:40:54.446Z,10.73
2018-12-27T05:43:24.391Z,9.40
2018-12-27T05:45:54.392Z,9.60
2018-12-27T05:48:24.345Z,8.57
2018-12-27T05:50:54.708Z,11.47
2018-12-27T05:53:24.819Z,10.23
2018-12-27T05:55:54.886Z,10.60
2018-12-27T05:58:25.045Z,7.43
2018-12-27T06:00:55.019Z,9.60
2018-12-27T06:03:24.982Z,6.57
2018-12-27T06:05:55.000Z,9.53
2018-12-27T06:08:24.936Z,7.53
2018-12-27T06:10:54.978Z,11.20
2018-12-27T06:13:24.951Z,8.10
2018-12-27T06:15:55.023Z,13.03
2018-12-27T06:18:25.010Z,13.30
2018-12-27T06:21:01.139Z,9.73
2018-12-27T06:23:31.170Z,11.63
2018-12-27T06:26:01.432Z,12.97
2018-12-27T06:28:31.605Z,9.63
2018-12-27T06:31:01.672Z,7.80
2018-12-27T06:33:31.847Z,11.18
2018-12-27T06:36:01.991Z,12.20
2018-12-27T06:38:32.161Z,7.53
2018-12-27T06:41:02.164Z,10.63
2018-12-27T06:43:32.214Z,14.73
2018-12-27T06:46:02.232Z,5.00
2018-12-27T06:48:32.195Z,7.47
2018-12-27T06:51:02.314Z,19.07
2018-12-27T06:53:32.348Z,10.70
2018-12-27T06:56:02.360Z,8.50
2018-12-27T06:58:37.841Z,10.53
2018-12-27T07:01:07.397Z,9.57
2018-12-27T07:03:37.470Z,8.60
2018-12-27T07:06:07.550Z,7.63
2018-12-27T07:08:38.943Z,13.90
2018-12-27T07:11:09.094Z,9.23
2018-12-27T07:13:39.164Z,17.23
2018-12-27T07:16:10.825Z,8.37
2018-12-27T07:18:40.960Z,13.10
2018-12-27T07:21:11.126Z,6.50
2018-12-27T07:23:41.686Z,5.87
2018-12-27T07:26:11.684Z,13.90
2018-12-27T07:28:42.280Z,12.90
2018-12-27T07:31:12.325Z,14.60
2018-12-27T07:33:42.374Z,7.20
2018-12-27T07:36:12.372Z,11.33
2018-12-27T07:38:42.334Z,13.80
2018-12-27T07:41:12.472Z,11.10
2018-12-27T07:43:42.393Z,18.27
2018-12-27T07:46:12.322Z,9.83
2018-12-27T07:48:42.296Z,10.90
2018-12-27T07:51:12.808Z,11.83
2018-12-27T07:53:42.859Z,15.47
2018-12-27T07:56:12.927Z,9.80
2018-12-27T07:58:44.078Z,8.83
2018-12-27T08:01:14.084Z,14.20
2018-12-27T08:03:44.295Z,46.27
2018-12-27T08:06:15.286Z,53.63
2018-12-27T08:08:45.594Z,57.10
2018-12-27T08:11:15.707Z,46.17
2018-12-27T08:13:45.788Z,44.60
2018-12-27T08:16:19.448Z,44.90
2018-12-27T08:18:49.504Z,42.03
2018-12-27T08:21:19.625Z,45.33
2018-12-27T08:23:49.697Z,24.40
2018-12-27T08:26:19.798Z,26.87
2018-12-27T08:28:49.816Z,18.10
2018-12-27T08:31:19.824Z,16.20
2018-12-27T08:33:49.945Z,10.60
2018-12-27T08:36:19.980Z,19.17
2018-12-27T08:38:50.022Z,11.70
2018-12-27T08:41:20.195Z,11.50
2018-12-27T08:43:50.252Z,7.27
2018-12-27T08:46:20.230Z,19.50
2018-12-27T08:48:50.204Z,26.83
2018-12-27T08:51:20.286Z,17.37
2018-12-27T08:53:50.261Z,26.07
2018-12-27T08:56:20.199Z,20.87
2018-12-27T08:58:50.184Z,17.82
2018-12-27T09:01:20.241Z,13.20
2018-12-27T09:03:50.229Z,20.47
2018-12-27T09:06:20.212Z,14.13
2018-12-27T09:08:50.236Z,14.30
2018-12-27T09:11:20.257Z,19.30
2018-12-27T09:13:50.260Z,10.97
2018-12-27T09:16:20.743Z,15.20
2018-12-27T09:18:50.833Z,10.70
2018-12-27T09:21:20.889Z,10.57
2018-12-27T09:23:50.905Z,17.47
2018-12-27T09:26:20.880Z,26.40
2018-12-27T09:28:50.870Z,10.00
2018-12-27T09:31:20.947Z,10.90
2018-12-27T09:33:50.964Z,9.40
2018-12-27T09:36:20.979Z,12.20
2018-12-27T09:38:51.102Z,12.43
2018-12-27T09:41:21.232Z,12.93
2018-12-27T09:43:51.222Z,14.03
2018-12-27T09:46:21.188Z,8.53
2018-12-27T09:48:51.258Z,11.33
2018-12-27T09:51:21.246Z,17.27
2018-12-27T09:53:51.303Z,12.43
2018-12-27T09:56:21.357Z,8.37
2018-12-27T09:58:51.336Z,6.07
2018-12-27T10:01:21.315Z,10.00
2018-12-27T10:03:51.339Z,13.00
2018-12-27T10:06:21.401Z,12.10
2018-12-27T10:08:51.416Z,11.50
2018-12-27T10:11:21.414Z,12.53
2018-12-27T10:13:51.436Z,13.77
2018-12-27T10:16:21.437Z,9.85
2018-12-27T10:18:51.439Z,9.63
2018-12-27T10:21:21.417Z,14.10
2018-12-27T10:23:51.852Z,15.40
2018-12-27T10:26:21.864Z,18.33
2018-12-27T10:28:51.959Z,11.83
2018-12-27T10:31:22.032Z,11.73
2018-12-27T10:33:56.866Z,16.70
2018-12-27T10:36:24.559Z,9.07
2018-12-27T10:38:57.716Z,7.07
2018-12-27T10:41:27.731Z,16.43
2018-12-27T10:43:58.036Z,12.63
2018-12-27T10:46:28.060Z,10.50
2018-12-27T10:48:58.119Z,15.30
2018-12-27T10:51:28.296Z,9.93
2018-12-27T10:53:58.299Z,10.40
2018-12-27T10:56:28.572Z,10.77
2018-12-27T10:58:58.743Z,10.60
2018-12-27T11:01:28.772Z,12.37
2018-12-27T11:03:58.734Z,7.53
2018-12-27T11:06:28.883Z,9.73
2018-12-27T11:08:58.919Z,8.40
2018-12-27T11:11:28.928Z,9.53
2018-12-27T11:13:58.871Z,8.77
2018-12-27T11:16:29.080Z,12.13
2018-12-27T11:18:59.129Z,13.87
2018-12-27T11:21:29.212Z,15.87
2018-12-27T11:23:59.490Z,14.03
2018-12-27T11:26:29.501Z,9.23
2018-12-27T11:28:59.520Z,6.80
2018-12-27T11:31:29.784Z,7.57
2018-12-27T11:33:59.881Z,9.63
2018-12-27T11:36:30.091Z,9.90
2018-12-27T11:39:00.155Z,9.60
2018-12-27T11:41:30.191Z,12.20
2018-12-27T11:44:00.259Z,8.40
2018-12-27T11:46:30.229Z,13.03
2018-12-27T11:49:00.203Z,8.90
2018-12-27T11:51:30.156Z,7.40
2018-12-27T11:54:00.159Z,8.90
2018-12-27T11:56:30.212Z,10.00
2018-12-27T11:59:00.223Z,10.60
2018-12-27T12:01:30.228Z,11.87
2018-12-27T12:04:00.269Z,8.03
2018-12-27T12:06:30.259Z,6.00
2018-12-27T12:09:00.343Z,13.80
2018-12-27T12:11:30.301Z,19.43
2018-12-27T12:14:00.322Z,5.83
2018-12-27T12:16:30.333Z,5.30
2018-12-27T12:19:00.443Z,8.50
2018-12-27T12:21:30.468Z,9.10
2018-12-27T12:24:00.531Z,8.30
2018-12-27T12:26:30.474Z,6.73
2018-12-27T12:29:00.459Z,10.33
2018-12-27T12:31:30.524Z,11.10
2018-12-27T12:34:00.827Z,9.70
2018-12-27T12:36:31.107Z,19.10
2018-12-27T12:39:01.171Z,6.17
2018-12-27T12:41:31.528Z,9.50
2018-12-27T12:44:01.680Z,8.80
2018-12-27T12:46:31.775Z,9.23
2018-12-27T12:49:01.744Z,11.30
2018-12-27T12:51:32.103Z,7.80
2018-12-27T12:54:02.193Z,14.10
2018-12-27T12:56:32.143Z,10.70
2018-12-27T12:59:02.196Z,15.70
2018-12-27T13:01:32.170Z,8.53
2018-12-27T13:04:02.217Z,36.23
2018-12-27T13:06:32.305Z,5.70
2018-12-27T13:09:02.444Z,11.50
2018-12-27T13:11:32.488Z,7.53
2018-12-27T13:14:02.570Z,15.97
2018-12-27T13:16:32.661Z,8.40
2018-12-27T13:19:02.704Z,11.13
2018-12-27T13:21:32.733Z,9.37
2018-12-27T13:24:02.709Z,8.03
2018-12-27T13:26:32.885Z,11.93
2018-12-27T13:29:02.876Z,7.77
2018-12-27T13:31:32.954Z,9.97
2018-12-27T13:34:03.047Z,10.40
2018-12-27T13:36:33.182Z,8.07
2018-12-27T13:39:03.179Z,5.07
2018-12-27T13:41:41.724Z,6.50
2018-12-27T13:44:11.699Z,8.17
2018-12-27T13:46:41.803Z,6.63
2018-12-27T13:49:11.806Z,6.53
2018-12-27T13:51:41.829Z,8.87
2018-12-27T13:54:11.819Z,5.63
2018-12-27T13:56:41.814Z,5.20
2018-12-27T13:59:11.855Z,10.23
2018-12-27T14:01:41.844Z,5.13
2018-12-27T14:04:11.816Z,9.03
2018-12-27T14:06:41.878Z,8.60
2018-12-27T14:09:11.940Z,6.72
2018-12-27T14:11:41.923Z,6.30
2018-12-27T14:14:11.971Z,8.80
2018-12-27T14:16:42.252Z,11.10
2018-12-27T14:19:12.228Z,10.13
2018-12-27T14:21:42.231Z,8.97
2018-12-27T14:24:12.203Z,10.07
2018-12-27T14:26:43.351Z,6.57
2018-12-27T14:29:13.307Z,11.47
2018-12-27T14:31:43.365Z,10.57
2018-12-27T14:34:13.328Z,6.40
2018-12-27T14:36:43.421Z,13.53
2018-12-27T14:39:13.576Z,6.37
2018-12-27T14:41:43.633Z,6.27
2018-12-27T14:44:18.533Z,8.27
2018-12-27T14:46:52.847Z,5.07
2018-12-27T14:49:22.961Z,5.90
2018-12-27T14:51:52.960Z,13.00
2018-12-27T14:54:23.063Z,9.30
2018-12-27T14:56:53.072Z,8.47
2018-12-27T14:59:23.120Z,5.83
2018-12-27T15:01:53.226Z,7.50
2018-12-27T15:04:23.277Z,4.23
2018-12-27T15:06:53.254Z,8.00
2018-12-27T15:09:23.227Z,7.30
2018-12-27T15:11:53.285Z,6.13
2018-12-27T15:14:23.218Z,7.90
2018-12-27T15:16:53.305Z,9.07
2018-12-27T15:19:23.474Z,5.40
2018-12-27T15:21:53.480Z,13.77
2018-12-27T15:24:23.504Z,6.00
2018-12-27T15:26:53.663Z,5.67
2018-12-27T15:29:23.724Z,6.50
2018-12-27T15:31:53.765Z,10.27
2018-12-27T15:34:23.833Z,7.22
2018-12-27T15:36:54.555Z,5.33
2018-12-27T15:39:24.664Z,9.90
2018-12-27T15:41:54.659Z,8.40
2018-12-27T15:44:24.697Z,3.47
2018-12-27T15:46:54.769Z,9.23
2018-12-27T15:49:24.861Z,10.30
2018-12-27T15:51:54.817Z,16.43
2018-12-27T15:54:25.111Z,5.33
2018-12-27T15:56:55.139Z,4.20
2018-12-27T15:59:25.252Z,7.63
2018-12-27T16:01:55.403Z,8.73
2018-12-27T16:04:25.413Z,10.03
2018-12-27T16:07:01.477Z,11.00
2018-12-27T16:09:27.076Z,7.03
2018-12-27T16:11:57.083Z,9.30
2018-12-27T16:14:27.171Z,5.70
2018-12-27T16:16:57.104Z,7.27
2018-12-27T16:19:27.152Z,9.60
2018-12-27T16:21:57.147Z,11.47
2018-12-27T16:24:27.348Z,11.10
2018-12-27T16:26:57.294Z,11.03
2018-12-27T16:29:27.267Z,9.70
2018-12-27T16:31:57.290Z,11.80
2018-12-27T16:34:27.298Z,10.30
2018-12-27T16:36:57.362Z,8.53
2018-12-27T16:39:27.590Z,8.40
2018-12-27T16:41:57.803Z,20.20
2018-12-27T16:44:27.817Z,8.60
2018-12-27T16:46:57.837Z,8.60
2018-12-27T16:49:27.917Z,12.90
2018-12-27T16:51:58.079Z,12.23
2018-12-27T16:54:28.053Z,14.00
2018-12-27T16:56:58.109Z,11.30
2018-12-27T16:59:28.080Z,7.30
2018-12-27T17:01:58.031Z,10.07
2018-12-27T17:04:28.043Z,9.23
2018-12-27T17:06:58.017Z,16.77
2018-12-27T17:09:28.020Z,11.63
2018-12-27T17:11:57.964Z,13.80
2018-12-27T17:14:27.974Z,15.43
2018-12-27T17:16:58.032Z,17.10
2018-12-27T17:19:28.105Z,11.90
2018-12-27T17:21:58.060Z,8.50
2018-12-27T17:24:28.164Z,27.83
2018-12-27T17:26:58.207Z,23.90
2018-12-27T17:29:28.234Z,23.97
2018-12-27T17:31:58.311Z,18.77
2018-12-27T17:34:28.353Z,16.73
2018-12-27T17:36:58.440Z,21.07
2018-12-27T17:39:28.513Z,26.93
2018-12-27T17:41:58.504Z,26.07
2018-12-27T17:44:28.798Z,20.83
2018-12-27T17:46:58.798Z,18.70
2018-12-27T17:49:28.859Z,20.57
2018-12-27T17:51:58.901Z,16.97
2018-12-27T17:54:28.904Z,25.73
2018-12-27T17:56:58.986Z,15.73
2018-12-27T17:59:29.050Z,14.70
2018-12-27T18:01:59.050Z,9.73
2018-12-27T18:04:29.288Z,15.47
2018-12-27T18:06:59.371Z,17.17
2018-12-27T18:09:30.758Z,43.60
2018-12-27T18:12:00.770Z,35.40
2018-12-27T18:14:30.783Z,26.63
2018-12-27T18:17:00.771Z,22.30
2018-12-27T18:19:30.814Z,14.30
2018-12-27T18:22:00.906Z,22.40
2018-12-27T18:24:30.950Z,18.13
2018-12-27T18:27:01.026Z,20.83
2018-12-27T18:29:31.188Z,15.93
2018-12-27T18:32:01.195Z,14.37
2018-12-27T18:34:31.287Z,14.83
2018-12-27T18:37:01.346Z,11.00
2018-12-27T18:39:31.352Z,13.37
2018-12-27T18:42:01.402Z,14.83
2018-12-27T18:44:31.395Z,21.30
2018-12-27T18:47:01.414Z,16.20
2018-12-27T18:49:31.429Z,9.33
2018-12-27T18:52:01.391Z,12.00
2018-12-27T18:54:31.424Z,17.77
2018-12-27T18:57:01.431Z,14.43
2018-12-27T18:59:31.496Z,17.40
2018-12-27T19:02:01.550Z,19.07
2018-12-27T19:04:32.012Z,20.03
2018-12-27T19:07:02.224Z,17.57
2018-12-27T19:09:32.200Z,13.33
2018-12-27T19:12:37.706Z,17.07
2018-12-27T19:15:11.214Z,13.10
2018-12-27T19:18:01.458Z,14.17
2018-12-27T19:20:31.400Z,13.43
2018-12-27T19:23:07.398Z,14.90
2018-12-27T19:25:37.611Z,12.87
2018-12-27T19:28:07.595Z,15.63
2018-12-27T19:30:37.682Z,16.42
2018-12-27T19:33:07.757Z,25.93
2018-12-27T19:35:37.807Z,30.43
2018-12-27T19:38:07.791Z,20.27
2018-12-27T19:40:37.849Z,13.50
2018-12-27T19:43:08.047Z,11.80
2018-12-27T19:45:38.007Z,18.47
2018-12-27T19:48:08.048Z,12.33
2018-12-27T19:50:38.094Z,14.90
2018-12-27T19:53:08.100Z,9.50
2018-12-27T19:55:38.170Z,9.00
2018-12-27T19:58:08.236Z,15.17
2018-12-27T20:00:38.200Z,9.10
2018-12-27T20:03:08.351Z,17.10
2018-12-27T20:05:38.334Z,15.97
2018-12-27T20:08:08.291Z,16.97
2018-12-27T20:10:41.192Z,19.33
2018-12-27T20:13:11.204Z,25.40
2018-12-27T20:15:41.258Z,23.93
2018-12-27T20:18:11.371Z,23.43
2018-12-27T20:20:41.387Z,20.40
2018-12-27T20:23:11.376Z,24.63
2018-12-27T20:25:41.446Z,28.20
2018-12-27T20:28:11.431Z,17.83
2018-12-27T20:30:41.458Z,16.70
2018-12-27T20:33:11.629Z,18.07
2018-12-27T20:35:41.700Z,24.23
2018-12-27T20:38:11.700Z,19.47
2018-12-27T20:40:41.852Z,19.90
2018-12-27T20:43:12.091Z,20.93
2018-12-27T20:45:42.193Z,14.15
2018-12-27T20:48:12.247Z,16.63
2018-12-27T20:50:42.588Z,23.07
2018-12-27T20:53:12.548Z,14.50
2018-12-27T20:55:42.543Z,19.50
2018-12-27T20:58:12.520Z,14.80
2018-12-27T21:00:42.593Z,11.77
2018-12-27T21:03:12.622Z,13.47
2018-12-27T21:05:42.607Z,14.30
2018-12-27T21:08:14.220Z,19.00
2018-12-27T21:10:44.329Z,15.20
2018-12-27T21:13:14.378Z,18.97
2018-12-27T21:15:44.545Z,16.17
2018-12-27T21:18:14.495Z,9.63
2018-12-27T21:20:44.540Z,16.33
2018-12-27T21:23:14.587Z,11.97
2018-12-27T21:25:44.558Z,13.33
2018-12-27T21:28:14.696Z,11.40
2018-12-27T21:30:44.787Z,14.53
2018-12-27T21:33:14.835Z,27.00
2018-12-27T21:35:45.009Z,10.77
2018-12-27T21:38:21.147Z,9.10
2018-12-27T21:40:46.797Z,17.40
2018-12-27T21:43:16.803Z,10.93
2018-12-27T21:45:46.852Z,13.97
2018-12-27T21:48:16.935Z,17.67
2018-12-27T21:50:47.074Z,17.30
2018-12-27T21:53:17.036Z,11.30
2018-12-27T21:55:47.088Z,14.43
2018-12-27T21:58:17.094Z,14.70
2018-12-27T22:00:47.047Z,16.30
2018-12-27T22:03:17.116Z,18.37
2018-12-27T22:05:47.159Z,14.33
2018-12-27T22:08:17.244Z,17.70
2018-12-27T22:10:47.432Z,17.63
2018-12-27T22:13:17.495Z,15.27
2018-12-27T22:15:47.663Z,24.47
2018-12-27T22:18:17.658Z,22.50
2018-12-27T22:20:47.616Z,17.10
2018-12-27T22:23:17.743Z,19.30
2018-12-27T22:25:47.735Z,13.23
2018-12-27T22:28:17.687Z,15.73
2018-12-27T22:30:50.822Z,19.07
2018-12-27T22:33:20.925Z,20.27
2018-12-27T22:35:50.951Z,18.10
2018-12-27T22:38:20.982Z,20.00
2018-12-27T22:40:51.007Z,11.80
2018-12-27T22:43:21.068Z,15.20
2018-12-27T22:45:51.141Z,21.30
2018-12-27T22:48:21.304Z,15.50
2018-12-27T22:50:51.360Z,21.03
2018-12-27T22:53:21.336Z,13.63
2018-12-27T22:55:57.941Z,15.90
2018-12-27T22:58:28.019Z,19.93
2018-12-27T23:00:58.720Z,18.70
2018-12-27T23:03:28.697Z,17.07
2018-12-27T23:05:58.858Z,17.63
2018-12-27T23:08:28.913Z,12.80
2018-12-27T23:10:58.895Z,18.47
2018-12-27T23:13:28.898Z,16.37
2018-12-27T23:15:58.882Z,12.47
2018-12-27T23:18:28.841Z,16.50
2018-12-27T23:20:58.819Z,16.73
2018-12-27T23:23:28.911Z,14.20
2018-12-27T23:25:59.018Z,17.23
2018-12-27T23:28:29.080Z,11.77
2018-12-27T23:30:59.157Z,15.20
